sensor_id;sensor_type;location;lat;lon;timestamp;pressure;altitude;pressure_sealevel;temperature;humidity
15263;BME280;7733;51.554;13.590;2023-03-14T00:01:16;98325.28;;;13.13;100.00
15263;BME280;7733;51.554;13.590;2023-03-14T00:03:43;98317.47;;;13.11;100.00
15263;BME280;7733;51.554;13.590;2023-03-14T00:06:11;98309.59;;;13.27;100.00
15263;BME280;7733;51.554;13.590;2023-03-14T00:08:39;98316.72;;;13.09;100.00
15263;BME280;7733;51.554;13.590;2023-03-14T00:11:12;98298.22;;;13.10;100.00
15263;BME280;7733;51.554;13.590;2023-03-14T00:13:38;98302.66;;;12.94;100.00
15263;BME280;7733;51.554;13.590;2023-03-14T00:16:07;98297.84;;;12.87;100.00
15263;BME280;7733;51.554;13.590;2023-03-14T00:18:34;98288.97;;;13.03;100.00
15263;BME280;7733;51.554;13.590;2023-03-14T00:21:02;98289.38;;;13.12;100.00
15263;BME280;7733;51.554;13.590;2023-03-14T00:23:31;98280.63;;;13.11;100.00
15263;BME280;7733;51.554;13.590;2023-03-14T00:26:13;98268.97;;;13.15;100.00
15263;BME280;7733;51.554;13.590;2023-03-14T00:28:41;98277.06;;;13.12;100.00
15263;BME280;7733;51.554;13.590;2023-03-14T00:31:10;98274.16;;;13.17;100.00
15263;BME280;7733;51.554;13.590;2023-03-14T00:33:36;98269.06;;;13.29;100.00
15263;BME280;7733;51.554;13.590;2023-03-14T00:36:15;98266.53;;;13.12;100.00
15263;BME280;7733;51.554;13.590;2023-03-14T00:38:43;98267.97;;;13.18;100.00
15263;BME280;7733;51.554;13.590;2023-03-14T00:41:18;98276.19;;;13.27;100.00
15263;BME280;7733;51.554;13.590;2023-03-14T00:43:44;98276.75;;;13.02;100.00
15263;BME280;7733;51.554;13.590;2023-03-14T00:46:10;98263.78;;;13.29;100.00
15263;BME280;7733;51.554;13.590;2023-03-14T00:48:36;98252.81;;;13.07;100.00
15263;BME280;7733;51.554;13.590;2023-03-14T00:51:05;98251.97;;;13.06;100.00
15263;BME280;7733;51.554;13.590;2023-03-14T00:53:35;98233.81;;;13.02;100.00
15263;BME280;7733;51.554;13.590;2023-03-14T00:56:04;98231.66;;;13.08;100.00
15263;BME280;7733;51.554;13.590;2023-03-14T00:58:30;98239.72;;;13.05;100.00
15263;BME280;7733;51.554;13.590;2023-03-14T01:00:56;98238.97;;;13.03;100.00
15263;BME280;7733;51.554;13.590;2023-03-14T01:03:22;98245.78;;;12.92;100.00
15263;BME280;7733;51.554;13.590;2023-03-14T01:05:47;98239.91;;;13.02;100.00
15263;BME280;7733;51.554;13.590;2023-03-14T01:08:13;98257.97;;;13.08;100.00
15263;BME280;7733;51.554;13.590;2023-03-14T01:10:40;98262.09;;;13.28;100.00
15263;BME280;7733;51.554;13.590;2023-03-14T01:13:07;98273.84;;;13.23;100.00
15263;BME280;7733;51.554;13.590;2023-03-14T01:15:35;98288.88;;;13.05;100.00
15263;BME280;7733;51.554;13.590;2023-03-14T01:18:01;98291.50;;;13.21;100.00
15263;BME280;7733;51.554;13.590;2023-03-14T01:20:27;98285.22;;;13.07;100.00
15263;BME280;7733;51.554;13.590;2023-03-14T01:22:53;98280.91;;;13.06;100.00
15263;BME280;7733;51.554;13.590;2023-03-14T01:25:19;98288.22;;;13.01;100.00
15263;BME280;7733;51.554;13.590;2023-03-14T01:27:45;98290.88;;;13.16;100.00
15263;BME280;7733;51.554;13.590;2023-03-14T01:30:12;98283.53;;;13.06;100.00
15263;BME280;7733;51.554;13.590;2023-03-14T01:32:38;98293.25;;;12.90;100.00
15263;BME280;7733;51.554;13.590;2023-03-14T01:35:04;98304.88;;;13.16;100.00
15263;BME280;7733;51.554;13.590;2023-03-14T01:37:30;98299.31;;;13.06;100.00
15263;BME280;7733;51.554;13.590;2023-03-14T01:39:56;98316.38;;;12.99;100.00
15263;BME280;7733;51.554;13.590;2023-03-14T01:42:22;98313.59;;;13.02;100.00
15263;BME280;7733;51.554;13.590;2023-03-14T01:44:53;98313.00;;;12.97;100.00
15263;BME280;7733;51.554;13.590;2023-03-14T01:47:20;98312.16;;;12.97;100.00
15263;BME280;7733;51.554;13.590;2023-03-14T01:49:57;98323.69;;;12.94;100.00
15263;BME280;7733;51.554;13.590;2023-03-14T01:52:33;98323.69;;;12.94;100.00
15263;BME280;7733;51.554;13.590;2023-03-14T01:55:12;98320.13;;;12.95;100.00
15263;BME280;7733;51.554;13.590;2023-03-14T01:57:44;98319.81;;;13.01;100.00
15263;BME280;7733;51.554;13.590;2023-03-14T02:00:18;98322.25;;;13.04;100.00
15263;BME280;7733;51.554;13.590;2023-03-14T02:02:48;98315.81;;;12.94;100.00
15263;BME280;7733;51.554;13.590;2023-03-14T02:05:20;98301.88;;;12.92;100.00
15263;BME280;7733;51.554;13.590;2023-03-14T02:07:54;98319.47;;;12.92;100.00
15263;BME280;7733;51.554;13.590;2023-03-14T02:10:25;98306.03;;;12.96;100.00
15263;BME280;7733;51.554;13.590;2023-03-14T02:12:55;98309.94;;;13.05;100.00
15263;BME280;7733;51.554;13.590;2023-03-14T02:15:23;98313.16;;;13.10;100.00
15263;BME280;7733;51.554;13.590;2023-03-14T02:17:49;98317.69;;;12.92;100.00
15263;BME280;7733;51.554;13.590;2023-03-14T02:20:34;98308.66;;;12.96;100.00
15263;BME280;7733;51.554;13.590;2023-03-14T02:23:03;98307.28;;;13.21;100.00
15263;BME280;7733;51.554;13.590;2023-03-14T02:26:14;98300.66;;;13.29;100.00
15263;BME280;7733;51.554;13.590;2023-03-14T02:28:41;98296.59;;;13.24;100.00
15263;BME280;7733;51.554;13.590;2023-03-14T02:31:08;98295.75;;;13.07;100.00
15263;BME280;7733;51.554;13.590;2023-03-14T02:33:37;98302.13;;;13.03;100.00
15263;BME280;7733;51.554;13.590;2023-03-14T02:36:07;98297.09;;;13.15;100.00
15263;BME280;7733;51.554;13.590;2023-03-14T02:38:55;98294.41;;;13.00;100.00
15263;BME280;7733;51.554;13.590;2023-03-14T02:41:26;98278.97;;;12.94;100.00
15263;BME280;7733;51.554;13.590;2023-03-14T02:43:52;98295.88;;;12.90;100.00
15263;BME280;7733;51.554;13.590;2023-03-14T02:46:20;98285.00;;;12.96;100.00
15263;BME280;7733;51.554;13.590;2023-03-14T02:49:03;98290.78;;;12.87;100.00
15263;BME280;7733;51.554;13.590;2023-03-14T02:51:31;98291.38;;;12.92;100.00
15263;BME280;7733;51.554;13.590;2023-03-14T02:53:57;98288.66;;;12.78;100.00
15263;BME280;7733;51.554;13.590;2023-03-14T02:56:23;98281.78;;;12.91;100.00
15263;BME280;7733;51.554;13.590;2023-03-14T02:58:49;98278.28;;;13.06;100.00
15263;BME280;7733;51.554;13.590;2023-03-14T03:01:15;98274.81;;;12.90;100.00
15263;BME280;7733;51.554;13.590;2023-03-14T03:03:40;98270.16;;;12.79;100.00
15263;BME280;7733;51.554;13.590;2023-03-14T03:06:06;98275.50;;;12.78;100.00
15263;BME280;7733;51.554;13.590;2023-03-14T03:08:33;98258.34;;;13.02;100.00
15263;BME280;7733;51.554;13.590;2023-03-14T03:10:59;98250.91;;;12.79;100.00
15263;BME280;7733;51.554;13.590;2023-03-14T03:13:25;98259.00;;;12.60;100.00
15263;BME280;7733;51.554;13.590;2023-03-14T03:15:52;98248.41;;;12.62;100.00
15263;BME280;7733;51.554;13.590;2023-03-14T03:18:18;98244.66;;;12.82;100.00
15263;BME280;7733;51.554;13.590;2023-03-14T03:20:44;98241.84;;;12.69;100.00
15263;BME280;7733;51.554;13.590;2023-03-14T03:23:09;98243.72;;;12.67;100.00
15263;BME280;7733;51.554;13.590;2023-03-14T03:25:35;98234.31;;;12.93;100.00
15263;BME280;7733;51.554;13.590;2023-03-14T03:28:01;98242.41;;;12.90;100.00
15263;BME280;7733;51.554;13.590;2023-03-14T03:30:27;98235.25;;;12.92;100.00
15263;BME280;7733;51.554;13.590;2023-03-14T03:32:53;98236.28;;;12.89;100.00
15263;BME280;7733;51.554;13.590;2023-03-14T03:35:19;98238.28;;;12.70;100.00
15263;BME280;7733;51.554;13.590;2023-03-14T03:37:44;98231.72;;;12.77;100.00
15263;BME280;7733;51.554;13.590;2023-03-14T03:40:10;98229.09;;;12.77;100.00
15263;BME280;7733;51.554;13.590;2023-03-14T03:42:36;98231.81;;;12.75;100.00
15263;BME280;7733;51.554;13.590;2023-03-14T03:45:03;98239.97;;;12.71;100.00
15263;BME280;7733;51.554;13.590;2023-03-14T03:47:31;98232.19;;;12.69;100.00
15263;BME280;7733;51.554;13.590;2023-03-14T03:49:57;98243.66;;;12.53;100.00
15263;BME280;7733;51.554;13.590;2023-03-14T03:52:23;98241.84;;;12.69;100.00
15263;BME280;7733;51.554;13.590;2023-03-14T03:54:48;98247.88;;;12.71;100.00
15263;BME280;7733;51.554;13.590;2023-03-14T03:57:14;98244.22;;;12.73;100.00
15263;BME280;7733;51.554;13.590;2023-03-14T03:59:40;98234.03;;;12.83;100.00
15263;BME280;7733;51.554;13.590;2023-03-14T04:02:07;98236.22;;;12.75;100.00
15263;BME280;7733;51.554;13.590;2023-03-14T04:04:33;98233.31;;;12.65;100.00
15263;BME280;7733;51.554;13.590;2023-03-14T04:06:59;98239.97;;;12.71;100.00
15263;BME280;7733;51.554;13.590;2023-03-14T04:09:24;98226.91;;;12.69;100.00
15263;BME280;7733;51.554;13.590;2023-03-14T04:11:50;98215.13;;;12.61;100.00
15263;BME280;7733;51.554;13.590;2023-03-14T04:14:16;98215.28;;;12.73;100.00
15263;BME280;7733;51.554;13.590;2023-03-14T04:16:42;98217.06;;;12.73;100.00
15263;BME280;7733;51.554;13.590;2023-03-14T04:19:08;98213.78;;;12.54;100.00
15263;BME280;7733;51.554;13.590;2023-03-14T04:21:34;98224.38;;;12.68;100.00
15263;BME280;7733;51.554;13.590;2023-03-14T04:23:59;98213.69;;;12.71;100.00
15263;BME280;7733;51.554;13.590;2023-03-14T04:26:25;98214.22;;;12.62;100.00
15263;BME280;7733;51.554;13.590;2023-03-14T04:28:51;98209.94;;;12.75;100.00
15263;BME280;7733;51.554;13.590;2023-03-14T04:31:20;98207.31;;;12.75;100.00
15263;BME280;7733;51.554;13.590;2023-03-14T04:33:46;98213.97;;;12.51;100.00
15263;BME280;7733;51.554;13.590;2023-03-14T04:36:13;98217.19;;;12.56;100.00
15263;BME280;7733;51.554;13.590;2023-03-14T04:38:39;98224.38;;;12.68;100.00
15263;BME280;7733;51.554;13.590;2023-03-14T04:41:06;98210.97;;;12.57;100.00
15263;BME280;7733;51.554;13.590;2023-03-14T04:43:32;98215.75;;;12.66;100.00
15263;BME280;7733;51.554;13.590;2023-03-14T04:45:58;98209.28;;;12.56;100.00
15263;BME280;7733;51.554;13.590;2023-03-14T04:48:26;98207.94;;;12.64;100.00
15263;BME280;7733;51.554;13.590;2023-03-14T04:50:52;98208.09;;;12.61;100.00
15263;BME280;7733;51.554;13.590;2023-03-14T04:53:18;98195.03;;;12.60;100.00
15263;BME280;7733;51.554;13.590;2023-03-14T04:55:52;98199.19;;;12.64;100.00
15263;BME280;7733;51.554;13.590;2023-03-14T04:58:19;98200.91;;;12.79;99.36
15263;BME280;7733;51.554;13.590;2023-03-14T05:00:45;98192.28;;;12.77;99.98
15263;BME280;7733;51.554;13.590;2023-03-14T05:03:11;98191.25;;;12.79;98.95
15263;BME280;7733;51.554;13.590;2023-03-14T05:05:37;98192.63;;;12.71;99.18
15263;BME280;7733;51.554;13.590;2023-03-14T05:08:03;98179.13;;;12.77;99.18
15263;BME280;7733;51.554;13.590;2023-03-14T05:10:28;98173.84;;;12.77;99.12
15263;BME280;7733;51.554;13.590;2023-03-14T05:12:54;98174.28;;;12.85;98.88
15263;BME280;7733;51.554;13.590;2023-03-14T05:15:20;98167.75;;;12.76;98.93
15263;BME280;7733;51.554;13.590;2023-03-14T05:17:46;98173.47;;;12.69;98.96
15263;BME280;7733;51.554;13.590;2023-03-14T05:20:12;98172.75;;;12.81;99.06
15263;BME280;7733;51.554;13.590;2023-03-14T05:22:41;98172.34;;;12.73;98.59
15263;BME280;7733;51.554;13.590;2023-03-14T05:25:08;98180.59;;;12.67;99.02
15263;BME280;7733;51.554;13.590;2023-03-14T05:27:34;98170.66;;;12.72;99.24
15263;BME280;7733;51.554;13.590;2023-03-14T05:30:01;98184.00;;;12.69;99.08
15263;BME280;7733;51.554;13.590;2023-03-14T05:32:28;98171.78;;;12.68;99.27
15263;BME280;7733;51.554;13.590;2023-03-14T05:34:53;98153.94;;;12.73;98.40
15263;BME280;7733;51.554;13.590;2023-03-14T05:37:24;98163.13;;;12.66;98.56
15263;BME280;7733;51.554;13.590;2023-03-14T05:39:49;98155.72;;;12.72;98.45
15263;BME280;7733;51.554;13.590;2023-03-14T05:42:15;98157.03;;;12.65;98.64
15263;BME280;7733;51.554;13.590;2023-03-14T05:44:41;98164.81;;;12.67;99.04
15263;BME280;7733;51.554;13.590;2023-03-14T05:47:07;98150.94;;;12.65;98.51
15263;BME280;7733;51.554;13.590;2023-03-14T05:49:33;98156.94;;;12.67;98.07
15263;BME280;7733;51.554;13.590;2023-03-14T05:51:58;98155.16;;;12.67;98.40
15263;BME280;7733;51.554;13.590;2023-03-14T05:54:24;98145.69;;;12.79;98.09
15263;BME280;7733;51.554;13.590;2023-03-14T05:56:50;98142.19;;;12.64;97.95
15263;BME280;7733;51.554;13.590;2023-03-14T05:59:15;98149.06;;;12.67;97.79
15263;BME280;7733;51.554;13.590;2023-03-14T06:01:41;98161.63;;;12.62;97.73
15263;BME280;7733;51.554;13.590;2023-03-14T06:04:07;98156.03;;;12.82;97.39
15263;BME280;7733;51.554;13.590;2023-03-14T06:06:33;98162.47;;;12.62;97.57
15263;BME280;7733;51.554;13.590;2023-03-14T06:08:58;98162.22;;;12.81;97.13
15263;BME280;7733;51.554;13.590;2023-03-14T06:11:24;98168.31;;;12.67;97.49
15263;BME280;7733;51.554;13.590;2023-03-14T06:13:51;98170.50;;;12.59;97.42
15263;BME280;7733;51.554;13.590;2023-03-14T06:16:17;98171.78;;;12.68;96.83
15263;BME280;7733;51.554;13.590;2023-03-14T06:18:42;98168.41;;;12.80;96.69
15263;BME280;7733;51.554;13.590;2023-03-14T06:21:08;98181.53;;;12.66;96.93
15263;BME280;7733;51.554;13.590;2023-03-14T06:23:34;98184.41;;;12.61;96.81
15263;BME280;7733;51.554;13.590;2023-03-14T06:26:00;98189.06;;;12.72;96.51
15263;BME280;7733;51.554;13.590;2023-03-14T06:28:26;98185.69;;;12.70;96.79
15263;BME280;7733;51.554;13.590;2023-03-14T06:30:52;98186.16;;;12.76;96.19
15263;BME280;7733;51.554;13.590;2023-03-14T06:33:17;98190.75;;;12.73;96.04
15263;BME280;7733;51.554;13.590;2023-03-14T06:35:43;98192.94;;;12.80;95.66
15263;BME280;7733;51.554;13.590;2023-03-14T06:38:09;98190.69;;;12.74;95.91
15263;BME280;7733;51.554;13.590;2023-03-14T06:40:35;98198.03;;;12.84;95.80
15263;BME280;7733;51.554;13.590;2023-03-14T06:43:01;98191.56;;;12.89;95.19
15263;BME280;7733;51.554;13.590;2023-03-14T06:45:26;98204.25;;;12.83;94.96
15263;BME280;7733;51.554;13.590;2023-03-14T06:47:52;98209.81;;;12.92;94.81
15263;BME280;7733;51.554;13.590;2023-03-14T06:50:18;98206.03;;;12.82;94.88
15263;BME280;7733;51.554;13.590;2023-03-14T06:52:43;98214.78;;;12.97;94.38
15263;BME280;7733;51.554;13.590;2023-03-14T06:55:14;98201.53;;;12.98;94.27
15263;BME280;7733;51.554;13.590;2023-03-14T06:57:40;98201.28;;;13.03;94.27
15263;BME280;7733;51.554;13.590;2023-03-14T07:00:07;98210.75;;;12.91;94.16
15263;BME280;7733;51.554;13.590;2023-03-14T07:02:33;98212.16;;;12.97;94.08
15263;BME280;7733;51.554;13.590;2023-03-14T07:04:59;98207.94;;;12.94;94.10
15263;BME280;7733;51.554;13.590;2023-03-14T07:07:26;98199.09;;;12.95;94.32
15263;BME280;7733;51.554;13.590;2023-03-14T07:09:52;98191.25;;;13.09;93.64
15263;BME280;7733;51.554;13.590;2023-03-14T07:12:19;98190.38;;;13.25;93.08
15263;BME280;7733;51.554;13.590;2023-03-14T07:14:44;98199.50;;;13.48;92.50
15263;BME280;7733;51.554;13.590;2023-03-14T07:17:10;98199.97;;;13.10;93.47
15263;BME280;7733;51.554;13.590;2023-03-14T07:19:36;98207.97;;;13.08;93.04
15263;BME280;7733;51.554;13.590;2023-03-14T07:22:04;98208.97;;;13.22;92.42
15263;BME280;7733;51.554;13.590;2023-03-14T07:24:30;98208.19;;;13.20;92.18
15263;BME280;7733;51.554;13.590;2023-03-14T07:26:56;98210.81;;;13.20;92.82
15263;BME280;7733;51.554;13.590;2023-03-14T07:29:22;98209.34;;;13.30;92.09
15263;BME280;7733;51.554;13.590;2023-03-14T07:31:48;98208.78;;;13.25;92.72
15263;BME280;7733;51.554;13.590;2023-03-14T07:34:14;98212.06;;;13.28;93.26
15263;BME280;7733;51.554;13.590;2023-03-14T07:36:40;98208.78;;;13.25;92.30
15263;BME280;7733;51.554;13.590;2023-03-14T07:39:06;98208.03;;;13.37;92.54
15263;BME280;7733;51.554;13.590;2023-03-14T07:41:32;98198.75;;;13.16;92.55
15263;BME280;7733;51.554;13.590;2023-03-14T07:43:58;98201.66;;;13.27;92.25
15263;BME280;7733;51.554;13.590;2023-03-14T07:46:23;98192.63;;;13.31;91.59
15263;BME280;7733;51.554;13.590;2023-03-14T07:48:49;98190.66;;;13.63;91.00
15263;BME280;7733;51.554;13.590;2023-03-14T07:51:15;98199.66;;;13.30;91.48
15263;BME280;7733;51.554;13.590;2023-03-14T07:53:40;98198.16;;;13.40;91.78
15263;BME280;7733;51.554;13.590;2023-03-14T07:56:08;98205.59;;;13.34;91.34
15263;BME280;7733;51.554;13.590;2023-03-14T07:58:34;98192.16;;;13.53;91.12
15263;BME280;7733;51.554;13.590;2023-03-14T08:01:00;98200.16;;;13.65;90.52
15263;BME280;7733;51.554;13.590;2023-03-14T08:03:26;98210.50;;;13.54;90.71
15263;BME280;7733;51.554;13.590;2023-03-14T08:05:52;98205.78;;;13.74;91.23
15263;BME280;7733;51.554;13.590;2023-03-14T08:08:19;98203.34;;;13.56;91.50
15263;BME280;7733;51.554;13.590;2023-03-14T08:10:45;98197.72;;;13.48;91.96
15263;BME280;7733;51.554;13.590;2023-03-14T08:13:12;98193.47;;;13.46;92.01
15263;BME280;7733;51.554;13.590;2023-03-14T08:15:38;98181.22;;;13.59;91.29
15263;BME280;7733;51.554;13.590;2023-03-14T08:18:05;98180.03;;;13.64;92.12
15263;BME280;7733;51.554;13.590;2023-03-14T08:20:31;98170.44;;;13.49;91.30
15263;BME280;7733;51.554;13.590;2023-03-14T08:22:59;98179.28;;;13.48;92.01
15263;BME280;7733;51.554;13.590;2023-03-14T08:25:26;98184.72;;;13.59;91.51
15263;BME280;7733;51.554;13.590;2023-03-14T08:27:52;98172.38;;;13.74;90.71
15263;BME280;7733;51.554;13.590;2023-03-14T08:30:20;98179.53;;;13.86;89.73
15263;BME280;7733;51.554;13.590;2023-03-14T08:32:46;98177.19;;;13.82;88.66
15263;BME280;7733;51.554;13.590;2023-03-14T08:35:13;98179.44;;;13.74;88.59
15263;BME280;7733;51.554;13.590;2023-03-14T08:37:38;98182.97;;;14.01;86.40
15263;BME280;7733;51.554;13.590;2023-03-14T08:40:06;98180.75;;;13.81;86.63
15263;BME280;7733;51.554;13.590;2023-03-14T08:42:33;98174.38;;;13.70;86.29
15263;BME280;7733;51.554;13.590;2023-03-14T08:44:59;98173.44;;;13.72;85.60
15263;BME280;7733;51.554;13.590;2023-03-14T08:47:25;98174.56;;;13.67;86.72
15263;BME280;7733;51.554;13.590;2023-03-14T08:49:51;98182.22;;;13.99;85.78
15263;BME280;7733;51.554;13.590;2023-03-14T08:52:17;98179.41;;;14.02;85.24
15263;BME280;7733;51.554;13.590;2023-03-14T08:54:46;98177.25;;;13.94;85.40
15263;BME280;7733;51.554;13.590;2023-03-14T08:57:12;98184.31;;;13.80;85.74
15263;BME280;7733;51.554;13.590;2023-03-14T08:59:38;98176.41;;;13.94;85.21
15263;BME280;7733;51.554;13.590;2023-03-14T09:02:04;98182.84;;;14.17;84.53
15263;BME280;7733;51.554;13.590;2023-03-14T09:04:33;98173.28;;;14.43;83.81
15263;BME280;7733;51.554;13.590;2023-03-14T09:06:59;98188.44;;;14.39;83.46
15263;BME280;7733;51.554;13.590;2023-03-14T09:09:25;98190.31;;;14.51;82.80
15263;BME280;7733;51.554;13.590;2023-03-14T09:11:56;98180.97;;;14.73;83.20
15263;BME280;7733;51.554;13.590;2023-03-14T09:14:22;98184.78;;;14.81;81.41
15263;BME280;7733;51.554;13.590;2023-03-14T09:16:48;98184.78;;;14.81;82.33
15263;BME280;7733;51.554;13.590;2023-03-14T09:19:14;98184.81;;;14.54;82.08
15263;BME280;7733;51.554;13.590;2023-03-14T09:21:40;98170.00;;;14.66;82.41
15263;BME280;7733;51.554;13.590;2023-03-14T09:24:06;98175.84;;;14.97;81.99
15263;BME280;7733;51.554;13.590;2023-03-14T09:26:32;98179.94;;;14.75;80.87
15263;BME280;7733;51.554;13.590;2023-03-14T09:28:58;98180.38;;;14.82;80.36
15263;BME280;7733;51.554;13.590;2023-03-14T09:31:24;98178.28;;;14.87;80.88
15263;BME280;7733;51.554;13.590;2023-03-14T09:33:50;98173.38;;;14.68;80.77
15263;BME280;7733;51.554;13.590;2023-03-14T09:36:15;98185.03;;;14.91;80.03
15263;BME280;7733;51.554;13.590;2023-03-14T09:38:41;98191.09;;;14.66;80.96
15263;BME280;7733;51.554;13.590;2023-03-14T09:41:33;98189.63;;;14.75;80.85
15263;BME280;7733;51.554;13.590;2023-03-14T09:46:30;98198.78;;;15.09;79.67
15263;BME280;7733;51.554;13.590;2023-03-14T09:48:56;98199.25;;;14.76;79.80
15263;BME280;7733;51.554;13.590;2023-03-14T09:51:22;98195.34;;;14.81;79.45
15263;BME280;7733;51.554;13.590;2023-03-14T09:53:50;98191.78;;;14.82;79.56
15263;BME280;7733;51.554;13.590;2023-03-14T09:56:30;98202.41;;;14.68;80.05
15263;BME280;7733;51.554;13.590;2023-03-14T09:59:05;98199.13;;;14.65;80.32
15263;BME280;7733;51.554;13.590;2023-03-14T10:01:36;98196.28;;;14.80;79.94
15263;BME280;7733;51.554;13.590;2023-03-14T10:04:14;98206.41;;;14.74;79.32
15263;BME280;7733;51.554;13.590;2023-03-14T10:06:40;98201.50;;;14.82;78.80
15263;BME280;7733;51.554;13.590;2023-03-14T10:09:13;98205.31;;;14.90;77.93
15263;BME280;7733;51.554;13.590;2023-03-14T10:11:41;98199.56;;;14.71;77.67
15263;BME280;7733;51.554;13.590;2023-03-14T10:14:10;98208.47;;;14.96;77.33
15263;BME280;7733;51.554;13.590;2023-03-14T10:16:44;98204.03;;;14.83;75.65
15263;BME280;7733;51.554;13.590;2023-03-14T10:19:14;98207.19;;;14.88;76.67
15263;BME280;7733;51.554;13.590;2023-03-14T10:21:50;98200.84;;;14.78;76.33
15263;BME280;7733;51.554;13.590;2023-03-14T10:24:33;98202.56;;;14.92;75.69
15263;BME280;7733;51.554;13.590;2023-03-14T10:27:06;98191.63;;;14.71;75.42
15263;BME280;7733;51.554;13.590;2023-03-14T10:30:00;98200.28;;;14.73;74.80
15263;BME280;7733;51.554;13.590;2023-03-14T10:32:38;98200.81;;;14.66;75.24
15263;BME280;7733;51.554;13.590;2023-03-14T10:38:00;98198.19;;;14.78;73.55
15263;BME280;7733;51.554;13.590;2023-03-14T10:40:47;98196.66;;;14.88;73.73
15263;BME280;7733;51.554;13.590;2023-03-14T10:43:51;98182.63;;;15.13;73.73
15263;BME280;7733;51.554;13.590;2023-03-14T10:46:15;98194.69;;;14.65;73.59
15263;BME280;7733;51.554;13.590;2023-03-14T10:48:43;98197.00;;;15.09;73.36
15263;BME280;7733;51.554;13.590;2023-03-14T10:51:28;98183.44;;;14.88;72.81
15263;BME280;7733;51.554;13.590;2023-03-14T10:53:58;98188.19;;;14.83;73.43
15263;BME280;7733;51.554;13.590;2023-03-14T10:56:28;98184.00;;;15.19;73.08
15263;BME280;7733;51.554;13.590;2023-03-14T10:58:58;98184.03;;;14.79;72.84
15263;BME280;7733;51.554;13.590;2023-03-14T11:07:55;98188.31;;;14.82;73.08
15263;BME280;7733;51.554;13.590;2023-03-14T11:10:35;98196.00;;;14.85;73.45
15263;BME280;7733;51.554;13.590;2023-03-14T11:13:17;98195.75;;;14.75;73.18
15263;BME280;7733;51.554;13.590;2023-03-14T11:15:50;98187.44;;;14.81;72.95
15263;BME280;7733;51.554;13.590;2023-03-14T11:21:43;98185.25;;;14.88;72.05
15263;BME280;7733;51.554;13.590;2023-03-14T11:30:12;98179.53;;;14.94;71.71
15263;BME280;7733;51.554;13.590;2023-03-14T11:36:04;98167.94;;;14.97;71.17
15263;BME280;7733;51.554;13.590;2023-03-14T11:38:46;98174.44;;;14.78;70.24
15263;BME280;7733;51.554;13.590;2023-03-14T11:41:25;98173.59;;;14.78;70.54
15263;BME280;7733;51.554;13.590;2023-03-14T11:44:10;98173.03;;;15.12;70.46
15263;BME280;7733;51.554;13.590;2023-03-14T11:47:17;98166.25;;;14.96;70.92
15263;BME280;7733;51.554;13.590;2023-03-14T11:49:58;98160.56;;;15.27;70.49
15263;BME280;7733;51.554;13.590;2023-03-14T11:52:48;98157.63;;;15.44;70.45
15263;BME280;7733;51.554;13.590;2023-03-14T11:55:33;98155.28;;;15.65;69.78
15263;BME280;7733;51.554;13.590;2023-03-14T11:58:20;98163.00;;;15.17;70.85
15263;BME280;7733;51.554;13.590;2023-03-14T12:00:48;98154.34;;;15.03;70.60
15263;BME280;7733;51.554;13.590;2023-03-14T12:03:35;98164.56;;;14.82;72.22
15263;BME280;7733;51.554;13.590;2023-03-14T12:06:40;98161.59;;;14.86;73.01
15263;BME280;7733;51.554;13.590;2023-03-14T12:09:12;98153.13;;;14.81;72.74
15263;BME280;7733;51.554;13.590;2023-03-14T12:11:56;98156.09;;;14.89;71.21
15263;BME280;7733;51.554;13.590;2023-03-14T12:14:29;98146.34;;;14.77;71.05
15263;BME280;7733;51.554;13.590;2023-03-14T12:17:21;98156.53;;;15.21;70.89
15263;BME280;7733;51.554;13.590;2023-03-14T12:19:45;98159.72;;;15.27;71.24
15263;BME280;7733;51.554;13.590;2023-03-14T12:22:28;98148.94;;;14.91;70.57
15263;BME280;7733;51.554;13.590;2023-03-14T12:25:03;98145.03;;;15.10;70.73
15263;BME280;7733;51.554;13.590;2023-03-14T12:35:42;98142.16;;;15.38;70.54
15263;BME280;7733;51.554;13.590;2023-03-14T12:38:15;98153.81;;;15.23;71.84
15263;BME280;7733;51.554;13.590;2023-03-14T12:41:27;98175.66;;;14.60;78.84
15263;BME280;7733;51.554;13.590;2023-03-14T12:43:55;98200.31;;;14.05;84.38
15263;BME280;7733;51.554;13.590;2023-03-14T12:46:26;98190.19;;;13.70;90.62
15263;BME280;7733;51.554;13.590;2023-03-14T12:51:37;98189.22;;;12.85;100.00
15263;BME280;7733;51.554;13.590;2023-03-14T12:59:46;98171.56;;;13.31;100.00
15263;BME280;7733;51.554;13.590;2023-03-14T13:05:02;98165.31;;;13.75;100.00
15263;BME280;7733;51.554;13.590;2023-03-14T13:13:11;98151.28;;;14.29;100.00
15263;BME280;7733;51.554;13.590;2023-03-14T13:15:44;98136.72;;;14.51;100.00
15263;BME280;7733;51.554;13.590;2023-03-14T13:18:26;98139.63;;;14.99;100.00
15263;BME280;7733;51.554;13.590;2023-03-14T13:20:59;98133.50;;;14.98;98.67
15263;BME280;7733;51.554;13.590;2023-03-14T13:23:37;98132.22;;;14.78;98.13
15263;BME280;7733;51.554;13.590;2023-03-14T13:26:12;98131.50;;;14.89;97.73
15263;BME280;7733;51.554;13.590;2023-03-14T13:28:39;98124.00;;;14.96;96.61
15263;BME280;7733;51.554;13.590;2023-03-14T13:31:05;98126.56;;;15.23;96.22
15263;BME280;7733;51.554;13.590;2023-03-14T13:33:33;98121.88;;;14.75;97.37
15263;BME280;7733;51.554;13.590;2023-03-14T13:36:02;98117.81;;;14.57;96.54
15263;BME280;7733;51.554;13.590;2023-03-14T13:38:35;98119.50;;;14.45;94.78
15263;BME280;7733;51.554;13.590;2023-03-14T13:41:07;98117.44;;;14.63;96.89
15263;BME280;7733;51.554;13.590;2023-03-14T13:43:39;98127.31;;;14.47;97.27
15263;BME280;7733;51.554;13.590;2023-03-14T13:46:22;98117.22;;;14.66;97.45
15263;BME280;7733;51.554;13.590;2023-03-14T13:48:55;98121.44;;;14.69;94.95
15263;BME280;7733;51.554;13.590;2023-03-14T13:51:22;98114.81;;;14.88;96.41
15263;BME280;7733;51.554;13.590;2023-03-14T13:53:53;98117.53;;;14.74;92.68
15263;BME280;7733;51.554;13.590;2023-03-14T13:56:21;98115.47;;;15.05;92.54